createdAt,value
2023-06-30T00:00:37.546Z,70.00
2023-06-30T00:02:09.758Z,70.00
2023-06-30T00:03:41.669Z,70.10
2023-06-30T00:05:16.774Z,70.00
2023-06-30T00:06:51.991Z,70.00
2023-06-30T00:08:23.960Z,70.00
2023-06-30T00:09:55.676Z,70.00
2023-06-30T00:11:27.390Z,70.00
2023-06-30T00:12:59.101Z,70.00
2023-06-30T00:14:30.880Z,70.00
2023-06-30T00:16:02.931Z,70.00
2023-06-30T00:17:34.694Z,70.10
2023-06-30T01:20:28.412Z,70.10
2023-06-30T01:24:31.670Z,70.10
2023-06-30T01:26:42.746Z,70.10
2023-06-30T01:29:55.318Z,70.00
2023-06-30T01:32:24.944Z,70.10
2023-06-30T01:33:43.608Z,70.00
2023-06-30T01:35:50.787Z,70.00
2023-06-30T01:37:27.879Z,70.00
2023-06-30T01:39:26.768Z,70.20
2023-06-30T01:41:07.923Z,70.10
2023-06-30T01:42:41.444Z,70.10
2023-06-30T01:44:24.753Z,70.00
2023-06-30T01:46:00.006Z,70.00
2023-06-30T01:47:33.342Z,70.00
2023-06-30T01:49:07.076Z,70.00
2023-06-30T01:50:41.096Z,70.00
2023-06-30T01:52:15.448Z,70.00
2023-06-30T01:53:53.374Z,70.00
2023-06-30T01:55:28.551Z,70.00
2023-06-30T01:57:03.281Z,70.00
2023-06-30T01:58:43.481Z,70.00
2023-06-30T02:00:16.022Z,70.00
2023-06-30T02:01:51.427Z,70.00
2023-06-30T02:03:23.713Z,70.00
2023-06-30T02:04:57.853Z,70.00
2023-06-30T02:06:34.222Z,70.00
2023-06-30T02:08:10.810Z,70.00
2023-06-30T02:09:48.102Z,70.00
2023-06-30T02:11:22.182Z,70.00
2023-06-30T02:12:54.819Z,70.00
2023-06-30T02:14:28.793Z,70.00
2023-06-30T02:16:03.235Z,70.00
2023-06-30T02:17:40.556Z,70.00
2023-06-30T02:19:12.569Z,70.00
2023-06-30T02:20:47.285Z,69.90
2023-06-30T02:22:22.275Z,70.00
2023-06-30T02:23:56.686Z,70.00
2023-06-30T02:25:33.969Z,70.00
2023-06-30T02:27:08.773Z,70.00
2023-06-30T02:28:46.724Z,70.00
2023-06-30T02:30:22.592Z,70.00
2023-06-30T02:31:56.072Z,70.00
2023-06-30T02:33:36.647Z,70.00
2023-06-30T02:35:10.186Z,70.00
2023-06-30T02:36:44.899Z,70.00
2023-06-30T02:38:19.928Z,70.00
2023-06-30T02:39:52.958Z,70.00
2023-06-30T02:41:25.107Z,69.90
2023-06-30T02:43:01.675Z,70.00
2023-06-30T02:44:39.099Z,70.00
2023-06-30T02:46:11.987Z,70.00
2023-06-30T02:47:48.795Z,70.00
2023-06-30T02:49:24.683Z,70.00
2023-06-30T02:50:57.131Z,70.00
2023-06-30T02:52:29.668Z,69.90
2023-06-30T02:54:02.508Z,70.00
2023-06-30T02:55:39.314Z,69.90
2023-06-30T02:57:13.231Z,69.80
2023-06-30T02:58:45.400Z,69.90
2023-06-30T03:00:17.834Z,69.90
2023-06-30T03:01:52.948Z,69.70
2023-06-30T03:03:25.153Z,69.70
2023-06-30T03:04:57.345Z,69.80
2023-06-30T03:06:31.046Z,69.80
2023-06-30T03:08:08.156Z,69.80
2023-06-30T03:09:41.294Z,69.80
2023-06-30T03:11:16.406Z,69.70
2023-06-30T03:12:51.650Z,69.80
2023-06-30T03:14:25.946Z,69.70
2023-06-30T03:15:58.797Z,69.80
2023-06-30T03:17:37.629Z,69.80
2023-06-30T03:19:13.387Z,69.70
2023-06-30T03:20:49.240Z,69.70
2023-06-30T03:22:21.319Z,69.70
2023-06-30T03:23:53.391Z,69.70
2023-06-30T03:25:27.723Z,69.70
2023-06-30T03:27:02.775Z,69.60
2023-06-30T03:28:38.181Z,69.60
2023-06-30T03:30:12.692Z,69.70
2023-06-30T03:32:08.345Z,69.70
2023-06-30T03:33:40.367Z,69.60
2023-06-30T03:35:14.829Z,69.70
2023-06-30T03:36:46.852Z,69.70
2023-06-30T03:38:19.790Z,69.70
2023-06-30T03:39:51.828Z,69.80
2023-06-30T03:41:27.987Z,69.70
2023-06-30T03:42:59.952Z,69.70
2023-06-30T03:44:31.968Z,69.70
2023-06-30T03:46:03.957Z,69.70
2023-06-30T03:47:36.145Z,69.70
2023-06-30T03:49:08.652Z,69.60
2023-06-30T03:50:44.478Z,69.60
2023-06-30T03:52:16.753Z,69.60
2023-06-30T03:53:48.754Z,69.60
2023-06-30T03:55:20.651Z,69.60
2023-06-30T03:56:52.560Z,69.40
2023-06-30T03:58:24.363Z,69.50
2023-06-30T03:59:56.298Z,69.60
2023-06-30T04:01:28.278Z,69.50
2023-06-30T04:03:03.298Z,69.50
2023-06-30T04:04:35.488Z,69.50
2023-06-30T04:06:07.408Z,69.50
2023-06-30T04:07:39.401Z,69.50
2023-06-30T04:09:11.445Z,69.50
2023-06-30T04:10:45.967Z,69.50
2023-06-30T04:12:28.094Z,69.40
2023-06-30T04:14:05.299Z,69.40
2023-06-30T04:15:40.139Z,69.40
2023-06-30T04:17:12.130Z,69.50
2023-06-30T04:18:44.461Z,69.50
2023-06-30T04:20:18.122Z,69.50
2023-06-30T04:21:55.584Z,69.40
2023-06-30T04:23:27.622Z,69.40
2023-06-30T04:25:00.248Z,69.30
2023-06-30T04:26:32.553Z,69.30
2023-06-30T04:29:53.023Z,69.40
2023-06-30T04:31:27.803Z,69.40
2023-06-30T04:32:59.772Z,69.30
2023-06-30T04:34:31.839Z,69.30
2023-06-30T04:36:04.970Z,69.30
2023-06-30T04:37:41.552Z,69.30
2023-06-30T04:39:13.712Z,69.30
2023-06-30T04:40:45.676Z,69.20
2023-06-30T04:42:17.752Z,69.10
2023-06-30T04:43:49.634Z,69.20
2023-06-30T04:45:21.630Z,69.10
2023-06-30T04:46:53.742Z,69.00
2023-06-30T04:48:25.626Z,69.10
2023-06-30T04:49:58.012Z,69.10
2023-06-30T04:51:30.244Z,69.10
2023-06-30T04:53:02.378Z,69.00
2023-06-30T04:54:34.829Z,69.00
2023-06-30T04:56:06.715Z,68.80
2023-06-30T04:57:38.665Z,68.70
2023-06-30T04:59:10.664Z,68.70
2023-06-30T05:00:44.339Z,68.80
2023-06-30T05:02:16.207Z,68.80
2023-06-30T05:03:51.238Z,68.70
2023-06-30T05:05:23.165Z,68.80
2023-06-30T05:07:00.638Z,68.80
2023-06-30T05:08:32.677Z,68.80
2023-06-30T05:10:11.894Z,68.90
2023-06-30T05:11:43.988Z,68.80
2023-06-30T05:13:16.016Z,68.80
2023-06-30T05:14:55.584Z,68.60
2023-06-30T05:16:52.656Z,68.60
2023-06-30T05:18:24.766Z,68.70
2023-06-30T05:20:05.920Z,68.80
2023-06-30T05:21:37.768Z,68.80
2023-06-30T05:23:09.686Z,68.60
2023-06-30T05:24:41.540Z,68.70
2023-06-30T05:26:13.516Z,68.70
2023-06-30T05:27:54.291Z,68.60
2023-06-30T05:29:29.538Z,68.70
2023-06-30T05:31:01.556Z,68.80
2023-06-30T05:32:33.721Z,68.70
2023-06-30T05:34:05.601Z,68.50
2023-06-30T05:35:37.817Z,68.60
2023-06-30T05:37:10.081Z,68.50
2023-06-30T05:38:42.296Z,68.40
2023-06-30T05:40:14.507Z,68.50
2023-06-30T05:41:50.583Z,68.50
2023-06-30T05:43:22.548Z,68.20
2023-06-30T05:44:54.449Z,68.10
2023-06-30T05:46:28.891Z,68.00
2023-06-30T05:48:05.532Z,68.00
2023-06-30T05:49:39.927Z,67.90
2023-06-30T05:51:14.411Z,67.90
2023-06-30T05:53:53.834Z,67.90
2023-06-30T05:55:37.526Z,67.80
2023-06-30T05:57:12.484Z,67.80
2023-06-30T05:58:46.777Z,67.70
2023-06-30T06:00:19.219Z,67.70
2023-06-30T06:02:01.024Z,67.90
2023-06-30T06:03:35.755Z,68.00
2023-06-30T06:05:13.371Z,67.90
2023-06-30T06:06:45.308Z,67.90
2023-06-30T06:08:17.311Z,68.00
2023-06-30T06:09:49.615Z,67.90
2023-06-30T06:11:26.142Z,67.80
2023-06-30T06:12:58.434Z,67.60
2023-06-30T06:14:30.488Z,67.70
2023-06-30T06:16:03.291Z,67.80
2023-06-30T06:17:35.903Z,67.70
2023-06-30T06:19:08.091Z,67.70
2023-06-30T06:20:40.784Z,67.50
2023-06-30T06:22:12.927Z,67.20
2023-06-30T06:23:45.402Z,67.10
2023-06-30T06:25:17.687Z,67.10
2023-06-30T06:26:49.819Z,67.30
2023-06-30T06:28:21.893Z,67.40
2023-06-30T06:29:53.786Z,67.40
2023-06-30T06:31:28.527Z,67.40
2023-06-30T06:33:00.544Z,67.40
2023-06-30T06:34:32.473Z,67.50
2023-06-30T06:36:04.455Z,67.60
2023-06-30T06:37:36.406Z,67.60
2023-06-30T06:39:08.398Z,67.60
2023-06-30T06:40:40.364Z,67.70
2023-06-30T06:42:12.386Z,67.60
2023-06-30T06:43:44.915Z,67.40
2023-06-30T06:45:29.450Z,67.40
2023-06-30T06:47:39.264Z,67.40
2023-06-30T06:49:11.725Z,67.20
2023-06-30T06:50:44.265Z,67.30
2023-06-30T06:52:16.204Z,67.30
2023-06-30T06:53:48.256Z,67.40
2023-06-30T06:55:20.266Z,67.30
2023-06-30T06:56:53.996Z,67.20
2023-06-30T06:58:28.753Z,67.20
2023-06-30T07:00:02.867Z,67.20
2023-06-30T07:01:36.594Z,67.20
2023-06-30T07:03:08.622Z,67.20
2023-06-30T07:04:40.591Z,67.20
2023-06-30T07:06:12.849Z,67.10
2023-06-30T07:10:08.476Z,67.10
2023-06-30T07:13:48.647Z,67.10
2023-06-30T07:14:58.486Z,67.10
2023-06-30T07:16:50.103Z,67.10
2023-06-30T07:18:43.976Z,67.20
2023-06-30T07:20:42.787Z,67.20
2023-06-30T07:22:15.411Z,67.20
2023-06-30T07:23:52.575Z,67.30
2023-06-30T07:25:25.911Z,67.30
2023-06-30T07:26:59.631Z,67.30
2023-06-30T07:28:32.531Z,67.40
2023-06-30T07:30:05.946Z,67.40
2023-06-30T07:31:40.023Z,67.20
2023-06-30T07:33:14.559Z,67.30
2023-06-30T07:34:46.929Z,67.30
2023-06-30T07:36:18.821Z,67.30
2023-06-30T07:37:51.991Z,67.30
2023-06-30T07:39:24.075Z,67.20
2023-06-30T07:40:57.441Z,67.20
2023-06-30T07:42:29.904Z,67.20
2023-06-30T07:44:03.554Z,67.10
2023-06-30T07:45:35.547Z,67.10
2023-06-30T07:47:10.197Z,67.10
2023-06-30T07:48:44.608Z,67.00
2023-06-30T07:50:17.041Z,66.70
2023-06-30T07:51:49.248Z,66.90
2023-06-30T07:53:22.301Z,66.90
2023-06-30T07:54:56.724Z,66.70
2023-06-30T07:58:52.317Z,66.50
2023-06-30T08:00:29.881Z,66.50
2023-06-30T08:02:02.106Z,66.30
2023-06-30T08:03:35.053Z,66.50
2023-06-30T08:05:09.976Z,66.50
2023-06-30T08:06:54.649Z,66.50
2023-06-30T08:08:31.358Z,66.30
2023-06-30T08:10:08.198Z,66.30
2023-06-30T08:11:40.104Z,66.30
2023-06-30T08:13:12.297Z,66.10
2023-06-30T08:14:44.475Z,66.10
2023-06-30T08:16:28.109Z,66.10
2023-06-30T08:18:00.284Z,66.00
2023-06-30T08:19:47.565Z,66.00
2023-06-30T08:21:21.537Z,65.80
2023-06-30T08:22:53.719Z,65.80
2023-06-30T08:24:25.777Z,65.80
2023-06-30T08:25:57.728Z,65.60
2023-06-30T08:27:30.168Z,65.50
2023-06-30T08:29:02.090Z,65.40
2023-06-30T08:30:34.080Z,65.20
2023-06-30T08:32:06.920Z,65.30
2023-06-30T08:33:41.001Z,65.20
2023-06-30T08:35:13.211Z,65.10
2023-06-30T08:36:47.622Z,65.10
2023-06-30T08:38:19.622Z,65.10
2023-06-30T08:39:51.762Z,65.10
2023-06-30T08:41:25.918Z,65.10
2023-06-30T08:43:05.824Z,65.10
2023-06-30T08:44:40.627Z,65.00
2023-06-30T08:46:17.355Z,64.80
2023-06-30T08:47:49.472Z,64.70
2023-06-30T08:49:25.138Z,64.50
2023-06-30T08:51:06.267Z,64.40
2023-06-30T08:52:38.644Z,64.40
2023-06-30T08:54:14.771Z,64.40
2023-06-30T08:55:48.368Z,64.40
2023-06-30T08:57:22.025Z,64.40
2023-06-30T08:58:54.240Z,64.30
2023-06-30T09:00:27.037Z,64.30
2023-06-30T09:01:59.442Z,64.30
2023-06-30T09:03:32.862Z,64.30
2023-06-30T09:05:06.227Z,64.10
2023-06-30T09:06:42.275Z,64.10
2023-06-30T09:08:25.128Z,64.10
2023-06-30T09:10:07.088Z,64.10
2023-06-30T09:11:40.254Z,63.80
2023-06-30T09:13:13.062Z,63.90
2023-06-30T09:14:47.184Z,63.90
2023-06-30T09:16:19.947Z,63.90
2023-06-30T09:17:53.970Z,63.90
2023-06-30T09:19:26.399Z,63.90
2023-06-30T09:20:58.504Z,63.70
2023-06-30T09:22:51.608Z,63.70
2023-06-30T09:24:27.417Z,63.50
2023-06-30T09:25:59.249Z,63.40
2023-06-30T09:27:36.083Z,63.40
2023-06-30T09:29:11.422Z,63.40
2023-06-30T09:30:49.965Z,63.40
2023-06-30T09:32:33.762Z,63.10
2023-06-30T09:34:15.225Z,63.30
2023-06-30T09:35:48.952Z,63.10
2023-06-30T09:37:22.327Z,63.10
2023-06-30T09:38:58.992Z,63.00
2023-06-30T09:40:30.938Z,63.10
2023-06-30T09:42:02.965Z,63.10
2023-06-30T09:43:36.652Z,62.80
2023-06-30T09:45:11.152Z,62.90
2023-06-30T09:46:51.427Z,62.80
2023-06-30T09:48:33.073Z,62.60
2023-06-30T09:50:14.384Z,62.50
2023-06-30T09:51:48.251Z,62.40
2023-06-30T09:53:20.983Z,62.50
2023-06-30T09:54:53.203Z,62.40
2023-06-30T09:56:30.223Z,62.60
2023-06-30T09:58:04.616Z,62.60
2023-06-30T09:59:37.691Z,62.60
2023-06-30T10:01:09.997Z,62.50
2023-06-30T10:02:42.121Z,62.50
2023-06-30T10:04:15.160Z,62.40
2023-06-30T10:05:50.188Z,62.50
2023-06-30T10:07:22.683Z,62.50
2023-06-30T10:08:58.849Z,62.60
2023-06-30T10:10:31.929Z,62.40
2023-06-30T10:12:04.960Z,62.50
2023-06-30T10:13:37.419Z,62.30
2023-06-30T10:15:11.679Z,62.40
2023-06-30T10:16:47.061Z,62.40
2023-06-30T10:18:20.555Z,62.20
2023-06-30T10:19:53.378Z,62.20
2023-06-30T10:21:25.638Z,62.20
2023-06-30T10:23:03.287Z,62.20
2023-06-30T10:24:39.070Z,62.10
2023-06-30T10:26:42.133Z,61.90
2023-06-30T10:28:15.567Z,62.00
2023-06-30T10:29:48.120Z,61.80
2023-06-30T10:31:24.155Z,62.00
2023-06-30T10:32:59.519Z,61.90
2023-06-30T10:34:32.777Z,61.90
2023-06-30T10:36:05.836Z,62.00
2023-06-30T10:37:38.170Z,61.80
2023-06-30T10:39:11.914Z,61.60
2023-06-30T10:40:43.854Z,61.70
2023-06-30T10:42:17.799Z,61.50
2023-06-30T10:44:08.096Z,61.70
2023-06-30T10:46:05.267Z,61.40
2023-06-30T10:47:40.499Z,61.30
2023-06-30T10:49:52.837Z,61.10
2023-06-30T10:51:35.689Z,61.20
2023-06-30T10:53:17.081Z,61.10
2023-06-30T10:54:59.504Z,61.00
2023-06-30T10:56:31.447Z,61.10
2023-06-30T10:58:28.427Z,61.00
2023-06-30T11:00:15.749Z,60.60
2023-06-30T11:02:13.660Z,61.00
2023-06-30T11:04:00.280Z,60.80
2023-06-30T11:05:36.682Z,60.90
2023-06-30T11:07:11.377Z,60.90
2023-06-30T11:11:59.163Z,60.50
2023-06-30T11:13:38.127Z,60.80
2023-06-30T11:15:35.329Z,60.90
2023-06-30T11:18:07.599Z,60.70
2023-06-30T11:20:40.227Z,60.50
2023-06-30T11:22:36.946Z,60.80
2023-06-30T11:24:16.602Z,60.50
2023-06-30T11:25:48.626Z,60.80
2023-06-30T11:27:21.581Z,60.70
2023-06-30T11:28:54.212Z,60.40
2023-06-30T11:30:26.697Z,60.50
2023-06-30T11:31:58.677Z,60.50
2023-06-30T11:33:30.742Z,60.60
2023-06-30T11:35:03.164Z,60.40
2023-06-30T11:36:35.537Z,60.50
2023-06-30T11:38:11.705Z,60.40
2023-06-30T11:39:51.830Z,60.60
2023-06-30T11:41:33.512Z,60.40
2023-06-30T11:43:06.724Z,60.50
2023-06-30T11:44:38.741Z,60.40
2023-06-30T11:46:10.957Z,60.20
2023-06-30T11:47:46.273Z,60.40
2023-06-30T11:49:18.317Z,60.40
2023-06-30T11:50:50.255Z,60.30
2023-06-30T11:52:22.822Z,60.20
2023-06-30T11:53:54.789Z,60.40
2023-06-30T11:55:27.738Z,60.10
2023-06-30T11:57:00.592Z,60.20
2023-06-30T11:58:32.690Z,60.40
2023-06-30T12:00:34.433Z,60.20
2023-06-30T12:02:12.360Z,60.10
2023-06-30T12:03:44.225Z,60.20
2023-06-30T12:05:22.739Z,60.10
2023-06-30T12:06:56.639Z,60.20
2023-06-30T12:08:31.632Z,60.00
2023-06-30T12:10:04.184Z,60.00
2023-06-30T12:11:36.558Z,59.90
2023-06-30T12:13:09.748Z,59.90
2023-06-30T12:14:42.411Z,59.60
2023-06-30T12:16:17.626Z,59.80
2023-06-30T12:18:07.514Z,59.70
2023-06-30T12:19:39.801Z,59.60
2023-06-30T12:21:14.313Z,59.90
2023-06-30T12:22:46.494Z,59.90
2023-06-30T12:24:22.765Z,60.00
2023-06-30T12:25:54.644Z,59.90
2023-06-30T12:27:30.602Z,59.90
2023-06-30T12:29:08.756Z,59.70
2023-06-30T12:30:45.552Z,59.50
2023-06-30T12:32:17.946Z,59.70
2023-06-30T12:33:55.517Z,59.80
2023-06-30T12:35:40.355Z,59.60
2023-06-30T12:37:12.729Z,59.70
2023-06-30T12:38:44.965Z,59.60
2023-06-30T12:40:17.064Z,59.60
2023-06-30T12:41:48.997Z,59.50
2023-06-30T12:43:21.056Z,59.40
2023-06-30T12:44:53.097Z,59.60
2023-06-30T12:46:39.921Z,59.30
2023-06-30T12:48:11.917Z,58.90
2023-06-30T12:49:43.813Z,59.30
2023-06-30T12:51:18.771Z,59.40
2023-06-30T12:52:50.822Z,59.20
2023-06-30T12:54:22.704Z,59.30
2023-06-30T12:55:54.606Z,59.30
2023-06-30T12:57:26.762Z,59.10
2023-06-30T12:58:59.095Z,59.20
2023-06-30T13:00:31.072Z,59.20
2023-06-30T13:02:03.186Z,59.30
2023-06-30T13:03:35.917Z,59.10
2023-06-30T13:05:09.092Z,59.30
2023-06-30T13:06:42.031Z,59.20
2023-06-30T13:08:28.207Z,58.10
2023-06-30T13:10:09.297Z,58.30
2023-06-30T13:11:42.537Z,57.70
2023-06-30T13:13:17.966Z,56.90
2023-06-30T13:14:49.810Z,57.30
2023-06-30T13:16:22.354Z,57.20
2023-06-30T13:17:54.435Z,57.10
2023-06-30T13:19:29.524Z,56.90
2023-06-30T13:21:01.690Z,56.70
2023-06-30T13:22:34.079Z,56.20
2023-06-30T13:24:07.429Z,55.80
2023-06-30T13:25:39.495Z,55.70
2023-06-30T13:27:12.154Z,55.70
2023-06-30T13:28:44.055Z,55.60
2023-06-30T13:30:15.938Z,55.90
2023-06-30T13:31:47.867Z,56.00
2023-06-30T13:33:20.693Z,56.10
2023-06-30T13:34:55.915Z,56.20
2023-06-30T13:36:29.109Z,56.10
2023-06-30T13:38:01.424Z,55.90
2023-06-30T13:39:33.419Z,55.10
2023-06-30T13:41:05.364Z,54.90
2023-06-30T13:42:43.589Z,54.80
2023-06-30T13:44:15.627Z,54.80
2023-06-30T13:45:47.665Z,55.00
2023-06-30T13:47:19.714Z,55.00
2023-06-30T13:48:51.788Z,55.30
2023-06-30T13:50:24.364Z,55.80
2023-06-30T13:51:56.376Z,55.60
2023-06-30T13:53:28.234Z,54.80
2023-06-30T13:55:00.292Z,54.80
2023-06-30T13:56:32.233Z,54.60
2023-06-30T13:58:04.064Z,54.90
2023-06-30T13:59:38.891Z,54.70
2023-06-30T14:01:10.972Z,55.20
2023-06-30T14:02:42.963Z,55.20
2023-06-30T14:04:15.417Z,55.20
2023-06-30T14:05:51.267Z,54.40
2023-06-30T14:07:23.490Z,54.60
2023-06-30T14:08:57.587Z,55.00
2023-06-30T14:10:32.728Z,54.70
2023-06-30T14:12:06.364Z,55.30
2023-06-30T14:13:38.740Z,55.10
2023-06-30T14:15:11.019Z,54.90
2023-06-30T14:16:43.256Z,55.00
2023-06-30T14:18:15.147Z,54.80
2023-06-30T14:19:47.084Z,54.40
2023-06-30T14:21:19.688Z,54.10
2023-06-30T14:22:51.741Z,54.60
2023-06-30T14:24:26.589Z,54.60
2023-06-30T14:25:58.621Z,54.40
2023-06-30T14:27:30.956Z,53.80
2023-06-30T14:29:02.821Z,53.90
2023-06-30T14:30:50.155Z,53.90
2023-06-30T14:32:28.338Z,53.70
2023-06-30T14:34:03.401Z,53.00
2023-06-30T14:35:37.061Z,53.30
2023-06-30T14:37:09.047Z,53.50
2023-06-30T14:38:41.118Z,53.20
2023-06-30T14:40:13.278Z,53.00
2023-06-30T14:41:53.678Z,53.20
2023-06-30T14:43:43.602Z,53.80
2023-06-30T14:45:18.106Z,54.30
2023-06-30T14:46:52.082Z,53.50
2023-06-30T14:49:16.605Z,52.70
2023-06-30T14:50:32.733Z,52.70
2023-06-30T14:52:06.417Z,53.50
2023-06-30T14:53:41.309Z,53.60
2023-06-30T14:55:13.490Z,54.10
2023-06-30T14:56:47.589Z,54.00
2023-06-30T14:58:22.685Z,53.80
2023-06-30T14:59:54.757Z,54.00
2023-06-30T15:01:26.821Z,54.00
2023-06-30T15:03:12.026Z,54.20
2023-06-30T15:04:44.008Z,54.30
2023-06-30T15:06:26.011Z,54.40
2023-06-30T15:08:02.511Z,54.60
2023-06-30T15:09:34.566Z,54.60
2023-06-30T15:11:06.555Z,54.20
2023-06-30T15:13:31.453Z,54.30
2023-06-30T15:15:09.454Z,54.10
2023-06-30T15:16:47.603Z,54.30
2023-06-30T15:18:22.901Z,54.00
2023-06-30T15:19:55.092Z,53.20
2023-06-30T15:21:27.009Z,53.90
2023-06-30T15:22:58.925Z,53.90
2023-06-30T15:24:30.860Z,54.10
2023-06-30T15:26:04.492Z,53.10
2023-06-30T15:27:37.200Z,53.50
2023-06-30T15:29:09.660Z,53.80
2023-06-30T15:30:41.516Z,53.90
2023-06-30T15:32:13.435Z,53.70
2023-06-30T15:33:45.452Z,53.60
2023-06-30T15:35:17.469Z,53.90
2023-06-30T15:36:49.239Z,53.70
2023-06-30T15:38:21.361Z,53.70
2023-06-30T15:39:53.266Z,53.60
2023-06-30T15:41:25.126Z,53.60
2023-06-30T15:42:57.213Z,53.80
2023-06-30T15:44:31.902Z,53.90
2023-06-30T15:46:04.884Z,54.00
2023-06-30T15:47:36.908Z,53.60
2023-06-30T15:49:14.925Z,53.70
2023-06-30T15:50:53.307Z,54.00
2023-06-30T15:52:25.445Z,53.90
2023-06-30T15:53:57.320Z,53.90
2023-06-30T15:55:29.173Z,53.70
2023-06-30T15:57:01.168Z,53.30
2023-06-30T15:58:33.167Z,53.10
2023-06-30T16:00:07.435Z,53.60
2023-06-30T16:01:46.869Z,53.30
2023-06-30T16:03:18.894Z,53.10
2023-06-30T16:04:51.196Z,53.40
2023-06-30T16:06:26.214Z,53.10
2023-06-30T16:07:58.088Z,53.30
2023-06-30T16:09:30.856Z,52.90
2023-06-30T16:11:02.792Z,53.50
2023-06-30T16:12:38.956Z,53.10
2023-06-30T16:14:10.959Z,53.20
2023-06-30T16:15:43.004Z,53.50
2023-06-30T16:45:38.104Z,54.30
2023-06-30T16:47:09.964Z,54.40
2023-06-30T16:48:41.729Z,54.50
2023-06-30T16:50:13.522Z,54.50
2023-06-30T16:51:45.230Z,54.40
2023-06-30T16:53:16.998Z,54.50
2023-06-30T16:54:48.707Z,54.50
2023-06-30T16:56:20.487Z,54.50
2023-06-30T16:57:52.254Z,54.40
2023-06-30T16:59:24.092Z,54.60
2023-06-30T17:00:55.837Z,54.60
2023-06-30T17:02:28.693Z,54.50
2023-06-30T17:04:00.490Z,54.50
2023-06-30T17:05:32.319Z,54.40
2023-06-30T17:07:08.891Z,54.30
2023-06-30T17:08:40.588Z,54.10
2023-06-30T17:10:12.506Z,53.90
2023-06-30T17:11:44.277Z,53.80
2023-06-30T17:13:16.015Z,53.70
2023-06-30T17:14:47.769Z,54.00
2023-06-30T17:16:19.959Z,54.10
2023-06-30T17:17:53.385Z,53.80
2023-06-30T17:23:12.399Z,53.70
2023-06-30T17:24:45.176Z,53.80
2023-06-30T17:26:16.886Z,53.60
2023-06-30T17:27:48.665Z,53.30
2023-06-30T17:29:20.474Z,53.50
2023-06-30T17:30:52.259Z,53.80
2023-06-30T17:32:24.118Z,54.00
2023-06-30T17:33:56.085Z,54.10
2023-06-30T17:35:28.234Z,54.40
2023-06-30T17:37:07.174Z,54.60
2023-06-30T17:38:38.905Z,54.80
2023-06-30T17:40:11.587Z,54.90
2023-06-30T17:41:43.290Z,55.10
2023-06-30T17:43:15.125Z,55.20
2023-06-30T17:44:46.912Z,55.30
2023-06-30T17:46:18.779Z,55.40
2023-06-30T17:47:50.603Z,55.40
2023-06-30T17:49:24.739Z,55.60
2023-06-30T17:50:57.233Z,55.60
2023-06-30T17:52:29.002Z,55.70
2023-06-30T17:54:00.767Z,55.70
2023-06-30T17:55:32.535Z,55.80
2023-06-30T17:57:04.325Z,55.90
2023-06-30T17:58:36.044Z,56.00
2023-06-30T18:00:08.492Z,56.10
2023-06-30T18:01:45.694Z,56.20
2023-06-30T18:03:17.551Z,56.20
2023-06-30T18:04:51.281Z,56.30
2023-06-30T18:06:22.990Z,56.30
2023-06-30T18:07:55.376Z,56.40
2023-06-30T18:09:28.593Z,56.40
2023-06-30T18:11:08.453Z,56.50
2023-06-30T18:12:41.894Z,56.50
2023-06-30T18:14:13.614Z,56.50
2023-06-30T18:15:45.538Z,56.60
2023-06-30T18:17:17.589Z,56.60
2023-06-30T18:18:49.334Z,56.70
2023-06-30T18:20:22.575Z,56.80
2023-06-30T18:21:55.725Z,56.80
2023-06-30T18:23:27.477Z,56.80
2023-06-30T18:24:59.213Z,56.90
2023-06-30T18:26:30.931Z,56.90
2023-06-30T18:28:02.693Z,56.90
2023-06-30T18:29:34.416Z,57.00
2023-06-30T18:31:07.092Z,57.00
2023-06-30T18:32:38.813Z,57.00
2023-06-30T18:34:10.596Z,57.00
2023-06-30T18:35:42.460Z,57.10
2023-06-30T18:37:14.213Z,57.10
2023-06-30T18:38:45.922Z,57.10
2023-06-30T18:40:17.704Z,57.10
2023-06-30T18:41:49.512Z,57.10
2023-06-30T18:43:21.347Z,57.20
2023-06-30T18:44:53.084Z,57.20
2023-06-30T18:46:27.869Z,57.10
2023-06-30T18:47:59.705Z,57.20
2023-06-30T18:49:31.554Z,57.20
2023-06-30T18:51:03.353Z,57.30
2023-06-30T18:52:35.485Z,57.30
2023-06-30T18:54:07.224Z,57.20
2023-06-30T18:55:39.264Z,57.30
2023-06-30T18:57:10.964Z,57.30
2023-06-30T18:58:42.695Z,57.30
2023-06-30T19:00:15.440Z,57.40
2023-06-30T19:01:47.285Z,57.40
2023-06-30T19:03:23.105Z,57.50
2023-06-30T19:04:55.048Z,57.40
2023-06-30T19:06:27.282Z,57.40
2023-06-30T19:07:59.001Z,57.50
2023-06-30T19:09:30.857Z,57.50
2023-06-30T19:11:03.425Z,57.50
2023-06-30T19:12:35.148Z,57.50
2023-06-30T19:14:06.979Z,57.60
2023-06-30T19:15:38.759Z,57.50
2023-06-30T19:17:10.567Z,57.60
2023-06-30T19:25:10.066Z,57.60
2023-06-30T19:26:41.844Z,57.60
2023-06-30T19:28:13.976Z,57.60
2023-06-30T19:29:46.191Z,57.70
2023-06-30T19:31:18.083Z,57.70
2023-06-30T19:32:49.943Z,57.70
2023-06-30T19:34:21.869Z,57.70
2023-06-30T19:35:53.552Z,57.70
2023-06-30T19:37:25.331Z,57.80
2023-06-30T19:38:57.027Z,57.70
2023-06-30T19:40:28.750Z,57.70
2023-06-30T19:42:00.482Z,57.80
2023-06-30T19:43:32.233Z,57.70
2023-06-30T19:45:06.163Z,57.80
2023-06-30T19:46:37.890Z,57.70
2023-06-30T19:48:09.836Z,57.80
2023-06-30T19:49:41.629Z,57.90
2023-06-30T19:51:13.639Z,57.90
2023-06-30T19:52:45.562Z,57.90
2023-06-30T19:54:17.239Z,57.90
2023-06-30T19:55:49.519Z,57.90
2023-06-30T19:57:21.551Z,57.90
2023-06-30T19:58:53.230Z,57.90
2023-06-30T20:00:24.932Z,57.90
2023-06-30T20:01:57.814Z,57.90
2023-06-30T20:03:29.726Z,57.90
2023-06-30T20:05:02.677Z,58.00
2023-06-30T20:06:34.478Z,58.00
2023-06-30T20:08:06.238Z,58.00
2023-06-30T20:09:39.158Z,58.00
2023-06-30T20:11:12.862Z,58.10
2023-06-30T20:12:44.913Z,58.00
2023-06-30T20:14:16.754Z,58.10
2023-06-30T20:15:48.745Z,58.10
2023-06-30T20:17:20.795Z,58.10
2023-06-30T20:18:52.642Z,58.10
2023-06-30T20:20:24.372Z,58.10
2023-06-30T20:21:56.073Z,58.20
2023-06-30T20:23:27.823Z,58.20
2023-06-30T20:24:59.859Z,58.10
2023-06-30T20:26:31.618Z,58.20
2023-06-30T20:28:03.522Z,58.10
2023-06-30T20:29:35.312Z,58.20
2023-06-30T20:31:07.370Z,58.20
2023-06-30T20:32:39.157Z,58.20
2023-06-30T20:34:11.275Z,58.30
2023-06-30T20:35:43.049Z,58.20
2023-06-30T20:37:14.897Z,58.30
2023-06-30T20:38:46.740Z,58.20
2023-06-30T20:40:18.676Z,58.20
2023-06-30T20:41:50.666Z,58.30
2023-06-30T20:43:22.811Z,58.30
2023-06-30T20:44:55.072Z,58.30
2023-06-30T20:46:26.828Z,58.30
2023-06-30T20:47:58.585Z,58.30
2023-06-30T20:49:30.381Z,58.30
2023-06-30T20:51:02.127Z,58.40
2023-06-30T20:52:34.256Z,58.40
2023-06-30T20:54:06.705Z,58.40
2023-06-30T20:55:38.653Z,58.40
2023-06-30T20:57:10.416Z,58.30
2023-06-30T20:58:42.153Z,58.40
2023-06-30T21:00:14.270Z,58.40
2023-06-30T21:01:46.314Z,58.40
2023-06-30T21:03:18.269Z,58.40
2023-06-30T21:04:50.635Z,58.40
2023-06-30T21:06:22.831Z,58.40
2023-06-30T21:07:54.593Z,58.40
2023-06-30T21:09:26.304Z,58.40
2023-06-30T21:10:58.041Z,58.40
2023-06-30T21:12:29.804Z,58.40
2023-06-30T21:14:01.650Z,58.40
2023-06-30T21:15:33.368Z,58.50
2023-06-30T21:17:05.420Z,58.40
2023-06-30T21:18:37.116Z,58.40
2023-06-30T21:20:09.435Z,58.40
2023-06-30T21:21:43.820Z,58.50
2023-06-30T21:23:15.613Z,58.50
2023-06-30T21:24:47.353Z,58.50
2023-06-30T21:26:19.082Z,58.50
2023-06-30T21:27:50.782Z,58.60
2023-06-30T21:29:22.622Z,58.50
2023-06-30T21:30:57.945Z,58.50
2023-06-30T21:32:29.785Z,58.50
2023-06-30T21:34:01.582Z,58.40
2023-06-30T21:35:33.381Z,58.50
2023-06-30T21:37:05.370Z,58.50
2023-06-30T21:38:37.136Z,58.40
2023-06-30T21:40:10.219Z,58.50
2023-06-30T21:41:42.393Z,58.50
2023-06-30T21:43:14.365Z,58.50
2023-06-30T21:44:46.222Z,58.50
2023-06-30T21:46:18.140Z,58.50
2023-06-30T21:47:51.531Z,58.60
2023-06-30T21:49:23.326Z,58.60
2023-06-30T21:50:55.058Z,58.70
2023-06-30T21:52:26.785Z,58.60
2023-06-30T21:54:04.998Z,58.60
2023-06-30T21:55:36.845Z,58.60
2023-06-30T21:57:08.607Z,58.60
2023-06-30T21:58:40.385Z,58.60
2023-06-30T22:00:13.449Z,58.60
2023-06-30T22:01:45.693Z,58.60
2023-06-30T22:03:17.621Z,58.60
2023-06-30T22:04:49.535Z,58.60
2023-06-30T22:06:21.408Z,58.60
2023-06-30T22:07:53.133Z,58.70
2023-06-30T22:09:24.824Z,58.70
2023-06-30T22:10:59.032Z,58.60
2023-06-30T22:12:31.093Z,58.80
2023-06-30T22:14:02.817Z,58.70